Time;durP1;ratioP1;P1;durP2;ratioP2;P2;SDS_P1;SDS_P2;PMS_P1;PMS_P2;Temp;Humidity;BMP_temperature;BMP_pressure;BME280_temperature;BME280_humidity;BME280_pressure;Samples;Min_cycle;Max_cycle;Signal;HPM_P1;HPM_P2
2021/10/29 00:01:20;;;;;;;9.60;4.97;;;12.20;76.00;;;;;;4965730;28;20214;-87
2021/10/29 00:03:47;;;;;;;10.32;5.68;;;12.10;76.00;;;;;;4967119;28;20043;-86
2021/10/29 00:06:14;;;;;;;8.57;5.28;;;12.10;76.00;;;;;;4971176;28;20046;-87
2021/10/29 00:08:41;;;;;;;9.30;5.38;;;12.10;76.00;;;;;;4969304;28;20058;-85
2021/10/29 00:11:08;;;;;;;9.55;5.75;;;12.00;76.10;;;;;;4967264;28;20054;-86
2021/10/29 00:13:35;;;;;;;9.15;5.55;;;12.10;76.10;;;;;;4964004;28;20504;-85
2021/10/29 00:16:02;;;;;;;7.72;5.32;;;12.00;76.10;;;;;;4956851;28;20468;-87
2021/10/29 00:18:29;;;;;;;12.02;5.53;;;12.00;76.20;;;;;;4968819;28;20423;-85
2021/10/29 00:20:56;;;;;;;9.15;5.78;;;12.00;76.20;;;;;;4969585;28;20050;-85
2021/10/29 00:23:25;;;;;;;8.77;5.30;;;12.00;76.30;;;;;;4968044;28;20086;-86
2021/10/29 00:25:52;;;;;;;9.38;5.80;;;12.00;76.30;;;;;;4966706;28;20515;-85
2021/10/29 00:28:19;;;;;;;10.23;5.68;;;12.00;76.30;;;;;;4966277;28;20543;-87
2021/10/29 00:30:46;;;;;;;11.73;6.20;;;12.00;76.40;;;;;;4966627;28;20111;-86
2021/10/29 00:33:15;;;;;;;7.95;5.13;;;11.90;76.40;;;;;;4970727;28;20546;-86
2021/10/29 00:35:43;;;;;;;7.43;5.22;;;12.00;76.50;;;;;;4968769;28;20050;-85
2021/10/29 00:38:10;;;;;;;9.57;5.20;;;11.90;76.50;;;;;;4967974;28;20117;-85
2021/10/29 00:40:39;;;;;;;12.13;5.57;;;11.90;76.50;;;;;;4964703;28;20511;-86
2021/10/29 00:43:10;;;;;;;9.57;6.07;;;11.90;76.60;;;;;;4966211;28;20081;-86
2021/10/29 00:45:38;;;;;;;9.68;5.85;;;11.90;76.60;;;;;;4970591;28;20050;-84
2021/10/29 00:48:06;;;;;;;11.18;6.20;;;11.90;76.70;;;;;;4954409;28;20047;-87
2021/10/29 00:50:33;;;;;;;11.20;5.63;;;11.90;76.70;;;;;;4967801;28;20106;-84
2021/10/29 00:53:02;;;;;;;7.70;5.28;;;11.90;76.70;;;;;;4966383;28;20046;-87
2021/10/29 00:55:29;;;;;;;9.35;5.95;;;11.90;76.80;;;;;;4966381;28;20125;-87
2021/10/29 00:57:56;;;;;;;10.40;5.97;;;11.90;76.80;;;;;;4965980;28;20043;-87
2021/10/29 01:00:23;;;;;;;9.20;5.45;;;11.90;76.80;;;;;;4969048;28;20053;-86
2021/10/29 01:02:55;;;;;;;9.18;5.57;;;11.90;76.90;;;;;;4968800;28;20495;-85
2021/10/29 01:05:23;;;;;;;7.07;5.20;;;11.90;76.90;;;;;;4967914;28;20047;-84
2021/10/29 01:07:50;;;;;;;11.90;5.97;;;11.90;76.90;;;;;;4966190;28;20049;-86
2021/10/29 01:10:17;;;;;;;11.52;5.38;;;11.90;76.90;;;;;;4966012;28;20051;-84
2021/10/29 01:12:44;;;;;;;8.48;5.28;;;11.90;77.00;;;;;;4965778;28;20508;-86
2021/10/29 01:15:11;;;;;;;7.97;5.32;;;11.90;77.00;;;;;;4970526;28;20532;-87
2021/10/29 01:17:38;;;;;;;9.95;5.60;;;11.90;77.00;;;;;;4968192;28;20047;-86
2021/10/29 01:20:06;;;;;;;11.15;5.85;;;11.90;77.00;;;;;;4964406;28;20102;-86
2021/10/29 01:22:33;;;;;;;11.02;5.95;;;11.80;77.00;;;;;;4965962;28;20054;-85
2021/10/29 01:25:00;;;;;;;9.63;5.65;;;11.80;77.10;;;;;;4965901;28;20040;-86
2021/10/29 01:27:28;;;;;;;7.53;5.53;;;11.80;77.10;;;;;;4967993;28;20046;-86
2021/10/29 01:29:54;;;;;;;12.50;6.20;;;11.90;77.10;;;;;;4968705;28;20055;-84
2021/10/29 01:32:22;;;;;;;9.80;6.10;;;11.80;77.10;;;;;;4970042;28;20050;-86
2021/10/29 01:34:49;;;;;;;8.02;5.65;;;11.80;77.20;;;;;;4967004;28;20095;-85
2021/10/29 01:37:16;;;;;;;11.52;5.93;;;11.80;77.10;;;;;;4968726;28;20043;-86
2021/10/29 01:39:44;;;;;;;11.85;5.78;;;11.80;77.20;;;;;;4969840;28;20073;-86
2021/10/29 01:42:12;;;;;;;10.85;5.90;;;11.80;77.20;;;;;;4958451;28;20055;-86
2021/10/29 01:44:41;;;;;;;14.38;5.40;;;11.80;77.30;;;;;;4971873;28;20062;-85
2021/10/29 01:47:08;;;;;;;10.43;5.82;;;11.70;77.30;;;;;;4969956;28;20050;-87
2021/10/29 01:49:38;;;;;;;8.98;5.68;;;11.70;77.30;;;;;;4969624;28;20467;-84
2021/10/29 01:52:06;;;;;;;8.45;6.07;;;11.70;77.40;;;;;;4969584;28;20468;-85
2021/10/29 01:54:33;;;;;;;9.25;5.68;;;11.70;77.40;;;;;;4970645;28;20102;-86
2021/10/29 01:57:01;;;;;;;9.98;6.10;;;11.70;77.40;;;;;;4972769;28;20059;-87
2021/10/29 01:59:28;;;;;;;10.35;6.25;;;11.70;77.50;;;;;;4969996;28;20047;-87
2021/10/29 02:01:55;;;;;;;9.68;5.90;;;11.70;77.50;;;;;;4969413;28;20057;-86
2021/10/29 02:04:22;;;;;;;12.32;6.47;;;11.70;77.50;;;;;;4969311;28;20101;-86
2021/10/29 02:06:49;;;;;;;8.35;5.80;;;11.60;77.60;;;;;;4969292;28;20385;-85
2021/10/29 02:09:16;;;;;;;9.52;5.95;;;11.70;77.60;;;;;;4972581;28;20511;-86
2021/10/29 02:11:44;;;;;;;10.88;6.18;;;11.60;77.60;;;;;;4971534;28;20043;-85
2021/10/29 02:14:11;;;;;;;9.40;5.78;;;11.60;77.70;;;;;;4969777;28;20558;-84
2021/10/29 02:16:40;;;;;;;13.88;5.60;;;11.70;77.70;;;;;;4969118;28;20408;-84
2021/10/29 02:19:07;;;;;;;13.35;5.80;;;11.60;77.80;;;;;;4968947;28;20097;-87
2021/10/29 02:21:34;;;;;;;9.98;6.32;;;11.60;77.80;;;;;;4970283;28;20520;-85
2021/10/29 02:24:01;;;;;;;9.50;5.93;;;11.60;77.80;;;;;;4972097;28;20054;-86
2021/10/29 02:26:30;;;;;;;10.25;5.75;;;11.60;77.80;;;;;;4970824;28;20050;-86
2021/10/29 02:28:57;;;;;;;12.57;6.32;;;11.60;77.90;;;;;;4968912;28;20051;-85
2021/10/29 02:31:26;;;;;;;9.23;6.00;;;11.60;77.90;;;;;;4968922;28;20525;-86
2021/10/29 02:33:54;;;;;;;10.68;6.28;;;11.60;78.00;;;;;;4968754;28;20051;-86
2021/10/29 02:36:21;;;;;;;11.38;5.70;;;11.60;78.00;;;;;;4970239;28;20105;-85
2021/10/29 02:38:49;;;;;;;10.32;6.35;;;11.60;78.00;;;;;;4971150;28;20054;-85
2021/10/29 02:41:16;;;;;;;9.80;5.95;;;11.50;78.10;;;;;;4969856;28;20051;-87
2021/10/29 02:43:45;;;;;;;10.35;6.38;;;11.60;78.10;;;;;;4968438;28;20082;-85
2021/10/29 02:46:12;;;;;;;10.40;6.63;;;11.60;78.10;;;;;;4968171;28;20455;-86
2021/10/29 02:48:39;;;;;;;9.02;5.90;;;11.50;78.10;;;;;;4969034;28;20084;-86
2021/10/29 02:51:06;;;;;;;13.27;6.57;;;11.50;78.10;;;;;;4972748;28;20196;-86
2021/10/29 02:53:35;;;;;;;14.10;7.03;;;11.50;78.10;;;;;;4969987;28;20047;-86
2021/10/29 02:56:03;;;;;;;11.48;6.28;;;11.50;78.20;;;;;;4968551;28;20051;-87
2021/10/29 02:58:32;;;;;;;12.48;6.07;;;11.50;78.20;;;;;;4968301;28;20047;-86
2021/10/29 03:01:00;;;;;;;15.25;6.47;;;11.50;78.20;;;;;;4968277;28;20188;-86
2021/10/29 03:03:28;;;;;;;11.27;6.53;;;11.50;78.20;;;;;;4970181;28;20459;-86
2021/10/29 03:05:55;;;;;;;10.98;6.30;;;11.50;78.20;;;;;;4970915;28;20063;-85
2021/10/29 03:08:23;;;;;;;10.63;6.03;;;11.40;78.20;;;;;;4969797;28;20054;-85
2021/10/29 03:10:50;;;;;;;8.98;6.07;;;11.40;78.20;;;;;;4968343;28;20070;-85
2021/10/29 03:13:17;;;;;;;11.77;6.65;;;11.40;78.30;;;;;;4968051;28;20043;-85
2021/10/29 03:15:46;;;;;;;10.05;5.80;;;11.40;78.30;;;;;;4972276;28;20046;-85
2021/10/29 03:18:13;;;;;;;9.63;6.55;;;11.40;78.30;;;;;;4971985;28;20044;-86
2021/10/29 03:20:41;;;;;;;10.52;6.22;;;11.40;78.30;;;;;;4970090;28;20054;-86
2021/10/29 03:23:07;;;;;;;12.65;6.53;;;11.40;78.40;;;;;;4958306;28;20059;-86
2021/10/29 03:25:35;;;;;;;10.23;6.05;;;11.40;78.40;;;;;;4962376;28;20055;-84
2021/10/29 03:28:02;;;;;;;10.80;6.22;;;11.40;78.40;;;;;;4967908;28;20500;-86
2021/10/29 03:30:29;;;;;;;11.52;6.05;;;11.40;78.50;;;;;;4968466;28;20106;-86
2021/10/29 03:32:57;;;;;;;11.20;6.00;;;11.40;78.50;;;;;;4970552;28;20488;-87
2021/10/29 03:35:24;;;;;;;9.95;6.53;;;11.40;78.50;;;;;;4969470;28;20055;-86
2021/10/29 03:45:53;;;;;;;10.35;6.63;;;11.40;78.60;;;;;;4967269;28;20476;-86
2021/10/29 03:48:37;;;;;;;12.38;6.63;;;11.30;78.70;;;;;;4970420;28;20472;-87
2021/10/29 03:51:20;;;;;;;9.90;6.60;;;11.30;78.70;;;;;;4971079;28;20075;-88
2021/10/29 03:53:53;;;;;;;11.73;6.25;;;11.30;78.70;;;;;;4970115;28;20047;-86
2021/10/29 03:56:24;;;;;;;11.43;6.63;;;11.30;78.80;;;;;;4954042;28;20070;-85
2021/10/29 03:58:53;;;;;;;9.77;5.88;;;11.30;78.80;;;;;;4963183;28;20047;-85
2021/10/29 04:01:20;;;;;;;11.00;6.47;;;11.30;78.80;;;;;;4967149;28;20046;-87
2021/10/29 04:03:48;;;;;;;9.30;5.90;;;11.30;78.90;;;;;;4967187;28;20110;-87
2021/10/29 04:06:15;;;;;;;11.45;5.85;;;11.30;78.90;;;;;;4969490;28;20063;-85
2021/10/29 04:08:43;;;;;;;10.32;6.47;;;11.30;78.90;;;;;;4969503;28;20051;-85
2021/10/29 04:11:10;;;;;;;10.02;5.60;;;11.40;78.90;;;;;;4968343;28;20055;-86
2021/10/29 04:13:38;;;;;;;8.30;5.63;;;11.40;78.90;;;;;;4966831;28;20050;-85
2021/10/29 04:16:05;;;;;;;7.90;6.03;;;11.40;78.90;;;;;;4966908;28;20055;-85
2021/10/29 04:18:33;;;;;;;10.38;6.22;;;11.40;78.90;;;;;;4968307;28;20087;-88
2021/10/29 04:21:02;;;;;;;11.18;5.57;;;11.40;78.90;;;;;;4969888;28;20890;-86
2021/10/29 04:23:29;;;;;;;10.07;5.70;;;11.40;78.90;;;;;;4968515;28;20125;-86
2021/10/29 04:25:56;;;;;;;11.20;6.18;;;11.40;78.80;;;;;;4964048;28;20483;-86
2021/10/29 04:28:24;;;;;;;9.73;5.97;;;11.40;78.80;;;;;;4967670;28;20047;-86
2021/10/29 04:30:52;;;;;;;8.90;5.68;;;11.40;78.80;;;;;;4968995;28;20038;-87
2021/10/29 04:33:20;;;;;;;8.25;5.57;;;11.40;78.70;;;;;;4956882;28;20058;-88
2021/10/29 04:35:51;;;;;;;9.32;5.47;;;11.40;78.70;;;;;;4968984;28;20074;-87
2021/10/29 04:38:20;;;;;;;11.55;5.70;;;11.40;78.70;;;;;;4968885;28;20062;-86
2021/10/29 04:40:50;;;;;;;9.45;6.20;;;11.40;78.60;;;;;;4958823;28;20047;-86
2021/10/29 04:43:17;;;;;;;10.60;6.10;;;11.40;78.60;;;;;;4956734;28;20050;-85
2021/10/29 04:45:44;;;;;;;11.82;5.97;;;11.40;78.60;;;;;;4954815;28;20051;-86
2021/10/29 04:48:11;;;;;;;13.65;5.60;;;11.40;78.50;;;;;;4972031;28;20507;-87
2021/10/29 04:50:38;;;;;;;10.85;5.80;;;11.40;78.50;;;;;;4969544;28;20059;-86
2021/10/29 04:53:05;;;;;;;11.13;5.82;;;11.40;78.40;;;;;;4965626;28;20050;-86
2021/10/29 04:55:32;;;;;;;10.20;6.00;;;11.40;78.40;;;;;;4967566;28;20051;-88
2021/10/29 04:57:59;;;;;;;9.55;5.90;;;11.40;78.40;;;;;;4967404;28;20074;-86
2021/10/29 05:00:26;;;;;;;11.15;6.13;;;11.40;78.30;;;;;;4969367;28;20050;-89
2021/10/29 05:02:58;;;;;;;10.43;5.72;;;11.40;78.30;;;;;;4970022;28;20133;-87
2021/10/29 05:05:26;;;;;;;9.13;5.95;;;11.40;78.20;;;;;;4969225;28;20057;-87
2021/10/29 05:07:53;;;;;;;10.27;5.60;;;11.40;78.20;;;;;;4966011;28;20424;-86
2021/10/29 05:10:20;;;;;;;9.55;6.13;;;11.40;78.20;;;;;;4967199;28;20055;-86
2021/10/29 05:12:47;;;;;;;11.00;5.38;;;11.40;78.10;;;;;;4965865;28;20051;-86
2021/10/29 05:15:17;;;;;;;12.75;5.90;;;11.30;78.10;;;;;;4969699;28;20042;-86
2021/10/29 05:17:45;;;;;;;10.32;5.43;;;11.40;78.10;;;;;;4969435;28;20046;-86
2021/10/29 05:20:13;;;;;;;9.95;5.30;;;11.40;78.10;;;;;;4962832;28;20050;-89
2021/10/29 05:22:41;;;;;;;9.32;5.60;;;11.30;78.00;;;;;;4965750;28;20427;-88
2021/10/29 05:25:08;;;;;;;14.50;5.25;;;11.30;78.00;;;;;;4965878;28;20051;-87
2021/10/29 05:27:37;;;;;;;8.90;5.50;;;11.30;78.00;;;;;;4967054;28;20051;-87
2021/10/29 05:30:06;;;;;;;10.00;5.50;;;11.30;78.00;;;;;;4968697;28;20047;-88
2021/10/29 05:32:34;;;;;;;8.90;5.43;;;11.30;78.00;;;;;;4967017;28;20051;-88
2021/10/29 05:35:01;;;;;;;10.15;5.75;;;11.30;78.00;;;;;;4965809;28;20511;-88
2021/10/29 05:37:32;;;;;;;9.60;5.18;;;11.30;77.90;;;;;;4965806;28;20689;-88
2021/10/29 05:39:59;;;;;;;11.43;5.78;;;11.30;77.90;;;;;;4965818;28;20043;-85
2021/10/29 05:42:27;;;;;;;16.23;5.65;;;11.30;77.90;;;;;;4967179;28;20054;-87
2021/10/29 05:44:54;;;;;;;10.60;5.63;;;11.20;77.90;;;;;;4968383;28;20516;-86
2021/10/29 05:47:22;;;;;;;8.82;5.15;;;11.20;77.90;;;;;;4969683;28;20055;-85
2021/10/29 05:49:49;;;;;;;11.15;5.35;;;11.20;77.90;;;;;;4965650;28;20047;-86
2021/10/29 05:52:24;;;;;;;9.25;4.97;;;11.20;77.90;;;;;;4964224;28;20039;-86
2021/10/29 05:57:24;;;;;;;11.05;5.32;;;11.20;77.90;;;;;;4968673;28;20046;-86
2021/10/29 05:59:52;;;;;;;8.90;4.97;;;11.10;77.90;;;;;;4968489;28;20085;-85
2021/10/29 06:02:20;;;;;;;7.60;5.45;;;11.20;77.90;;;;;;4966897;28;20074;-86
2021/10/29 06:04:48;;;;;;;8.68;4.90;;;11.20;77.90;;;;;;4963671;28;20055;-86
2021/10/29 06:07:16;;;;;;;11.35;5.65;;;11.20;77.90;;;;;;4965619;28;20404;-87
2021/10/29 06:09:43;;;;;;;10.73;5.60;;;11.20;77.90;;;;;;4965871;28;20497;-87
2021/10/29 06:12:11;;;;;;;11.77;5.60;;;11.20;77.90;;;;;;4954686;28;20059;-88
2021/10/29 06:14:39;;;;;;;9.18;5.18;;;11.10;77.90;;;;;;4967761;28;20082;-88
2021/10/29 06:17:08;;;;;;;11.15;5.30;;;11.10;77.90;;;;;;4965368;28;20054;-87
2021/10/29 06:19:35;;;;;;;7.55;4.60;;;11.20;77.90;;;;;;4965638;28;20043;-86
2021/10/29 06:22:12;;;;;;;11.23;5.28;;;11.10;77.90;;;;;;4968266;28;20055;-86
2021/10/29 06:24:40;;;;;;;8.88;5.10;;;11.20;77.90;;;;;;4968614;28;20039;-86
2021/10/29 06:29:57;;;;;;;7.45;4.85;;;11.10;77.90;;;;;;4931662;29;20111;-88
2021/10/29 06:32:24;;;;;;;11.02;5.18;;;11.10;77.90;;;;;;4920869;29;20115;-87
2021/10/29 06:34:51;;;;;;;6.93;4.80;;;11.10;77.90;;;;;;4922592;29;20048;-87
2021/10/29 06:37:18;;;;;;;7.78;5.18;;;11.10;77.90;;;;;;4922561;29;20048;-87
2021/10/29 06:39:48;;;;;;;8.93;5.13;;;11.10;77.90;;;;;;4918556;29;20481;-88
2021/10/29 06:42:35;;;;;;;12.93;5.13;;;11.10;78.00;;;;;;4933364;29;20051;-86
2021/10/29 06:47:37;;;;;;;11.23;5.18;;;11.10;78.10;;;;;;4929461;29;20055;-86
2021/10/29 07:00:39;;;;;;;8.15;5.18;;;11.00;78.30;;;;;;4919572;29;20083;-89
2021/10/29 07:03:31;;;;;;;14.55;5.82;;;11.00;78.30;;;;;;4917572;29;20504;-87
2021/10/29 07:12:08;;;;;;;9.95;4.35;;;11.00;78.50;;;;;;4969998;28;20077;-86
2021/10/29 07:42:26;;;;;;;11.98;5.38;;;11.20;78.90;;;;;;4950932;29;20044;-88
2021/10/29 07:44:53;;;;;;;10.48;5.30;;;11.30;78.90;;;;;;4935989;29;20056;-86
2021/10/29 07:47:21;;;;;;;11.32;5.43;;;11.30;79.00;;;;;;4921109;29;20048;-87
2021/10/29 07:49:48;;;;;;;12.10;5.20;;;11.30;78.90;;;;;;4940252;29;20043;-86
2021/10/29 07:52:15;;;;;;;11.73;5.15;;;11.30;79.00;;;;;;4940508;29;20176;-87
2021/10/29 07:54:45;;;;;;;11.30;5.25;;;11.40;79.00;;;;;;4924641;29;20040;-88
2021/10/29 07:57:13;;;;;;;9.60;5.10;;;11.40;79.00;;;;;;4944389;28;20106;-87
2021/10/29 07:59:40;;;;;;;9.48;5.10;;;11.40;79.00;;;;;;4969593;28;20047;-87
2021/10/29 08:02:07;;;;;;;8.27;4.85;;;11.40;79.00;;;;;;4966927;28;20055;-86
2021/10/29 08:04:34;;;;;;;7.82;4.63;;;11.50;79.00;;;;;;4967094;28;20051;-87
2021/10/29 08:07:01;;;;;;;11.02;4.68;;;11.60;79.00;;;;;;4966126;28;20051;-87
2021/10/29 08:09:28;;;;;;;11.52;5.47;;;11.60;79.00;;;;;;4969280;28;20471;-89
2021/10/29 08:11:55;;;;;;;9.52;4.60;;;11.70;79.00;;;;;;4969387;28;20055;-85
2021/10/29 08:14:25;;;;;;;8.50;4.78;;;11.70;79.00;;;;;;4958177;28;20122;-87
2021/10/29 08:16:53;;;;;;;8.02;4.80;;;11.80;79.00;;;;;;4963736;28;20054;-86
2021/10/29 08:19:28;;;;;;;9.82;4.90;;;11.90;78.90;;;;;;4967048;28;20113;-87
2021/10/29 08:21:55;;;;;;;9.88;4.45;;;11.90;78.90;;;;;;4966874;28;20054;-88
2021/10/29 08:24:23;;;;;;;9.07;4.75;;;11.90;78.80;;;;;;4969774;28;20105;-87
2021/10/29 08:26:50;;;;;;;12.18;4.25;;;12.00;78.80;;;;;;4969230;28;20062;-87
2021/10/29 08:29:19;;;;;;;10.27;4.78;;;12.10;78.70;;;;;;4966239;28;20522;-88
2021/10/29 08:31:47;;;;;;;11.13;4.22;;;12.20;78.60;;;;;;4966837;28;20405;-88
2021/10/29 08:34:15;;;;;;;9.13;4.60;;;12.20;78.60;;;;;;4966690;28;20043;-88
2021/10/29 08:36:43;;;;;;;12.18;4.38;;;12.30;78.40;;;;;;4967017;28;20055;-86
2021/10/29 08:39:11;;;;;;;10.70;4.97;;;12.40;78.30;;;;;;4954464;28;20047;-86
2021/10/29 08:41:40;;;;;;;9.35;4.32;;;12.40;78.20;;;;;;4968362;28;20450;-85
2021/10/29 08:44:07;;;;;;;12.38;4.75;;;12.40;78.10;;;;;;4965772;28;20113;-86
2021/10/29 08:46:34;;;;;;;11.80;4.72;;;12.50;78.00;;;;;;4966517;28;20051;-86
2021/10/29 08:49:03;;;;;;;12.20;4.20;;;12.60;77.90;;;;;;4966572;28;20039;-86
2021/10/29 08:51:30;;;;;;;10.05;4.43;;;12.60;77.80;;;;;;4968310;28;20109;-87
2021/10/29 08:53:57;;;;;;;9.63;4.32;;;12.60;77.70;;;;;;4969249;28;20101;-87
2021/10/29 08:56:26;;;;;;;9.35;4.53;;;12.70;77.60;;;;;;4967814;28;20511;-86
2021/10/29 08:59:09;;;;;;;13.13;4.65;;;12.80;77.50;;;;;;4966465;28;20051;-86
2021/10/29 09:02:09;;;;;;;8.25;4.32;;;12.80;77.40;;;;;;4966283;28;20050;-86
2021/10/29 09:32:22;;;;;;;14.75;5.90;;;13.20;76.50;;;;;;4967548;28;20051;-87
2021/10/29 09:35:06;;;;;;;18.25;7.45;;;13.20;76.50;;;;;;4965868;28;20113;-86
2021/10/29 09:37:53;;;;;;;10.70;5.60;;;13.30;76.40;;;;;;4966125;28;20047;-87
2021/10/29 09:40:23;;;;;;;10.93;5.63;;;13.30;76.30;;;;;;4965527;28;20043;-88
2021/10/29 09:42:52;;;;;;;12.88;4.85;;;13.30;76.30;;;;;;4967160;28;20043;-87
2021/10/29 09:45:27;;;;;;;7.68;4.15;;;13.30;76.20;;;;;;4967540;28;20051;-89
2021/10/29 09:48:11;;;;;;;12.32;4.13;;;13.40;76.20;;;;;;4968894;28;20058;-88
2021/10/29 09:50:48;;;;;;;8.32;4.55;;;13.40;76.10;;;;;;4967973;28;20515;-89
2021/10/29 09:54:19;;;;;;;10.02;4.20;;;13.40;76.10;;;;;;4958336;28;20134;-88
2021/10/29 09:58:46;;;;;;;8.70;4.40;;;13.40;76.00;;;;;;4961670;28;20058;-87
2021/10/29 10:01:13;;;;;;;8.68;4.00;;;13.40;76.00;;;;;;4961057;28;20050;-88
2021/10/29 10:03:42;;;;;;;9.98;3.78;;;13.40;75.90;;;;;;4969733;28;20500;-86
2021/10/29 10:06:10;;;;;;;8.95;3.75;;;13.50;76.00;;;;;;4956626;28;20118;-86
2021/10/29 10:08:38;;;;;;;11.77;4.18;;;13.40;76.10;;;;;;4971080;28;20101;-88
2021/10/29 10:11:05;;;;;;;9.05;4.40;;;13.40;76.20;;;;;;4969399;28;20050;-86
2021/10/29 10:13:33;;;;;;;10.70;4.20;;;13.40;76.20;;;;;;4969201;28;20519;-88
2021/10/29 10:16:02;;;;;;;5.60;3.70;;;13.40;76.30;;;;;;4969300;28;20168;-87
2021/10/29 10:18:29;;;;;;;7.70;3.85;;;13.40;76.40;;;;;;4971165;28;20078;-87
2021/10/29 10:20:59;;;;;;;9.02;4.10;;;13.40;76.50;;;;;;4971919;28;20539;-85
2021/10/29 10:23:33;;;;;;;7.10;3.88;;;13.40;76.60;;;;;;4970502;28;20054;-87
2021/10/29 10:26:17;;;;;;;8.90;4.30;;;13.40;76.70;;;;;;4967504;28;20054;-88
2021/10/29 10:40:59;;;;;;;8.57;4.65;;;13.20;77.40;;;;;;4969488;28;20047;-89
2021/10/29 10:48:30;;;;;;;12.18;4.72;;;13.10;78.10;;;;;;4959059;28;20506;-87
2021/10/29 10:51:23;;;;;;;9.10;4.38;;;13.10;78.30;;;;;;4956114;28;20051;-89
2021/10/29 10:53:54;;;;;;;11.40;5.47;;;13.10;78.50;;;;;;4971822;28;20055;-90
2021/10/29 10:56:48;;;;;;;18.77;7.03;;;13.10;78.60;;;;;;4960608;28;20058;-89
2021/10/29 11:05:58;;;;;;;25.20;9.85;;;13.00;79.20;;;;;;4962785;28;20567;-91
2021/10/29 11:11:51;;;;;;;17.98;7.93;;;12.90;79.60;;;;;;4968135;28;20105;-89
2021/10/29 11:14:33;;;;;;;21.42;9.15;;;12.90;79.80;;;;;;4897967;29;20517;-91
2021/10/29 11:17:01;;;;;;;17.83;7.35;;;12.90;80.00;;;;;;4905220;29;20055;-90
2021/10/29 11:19:48;;;;;;;15.35;7.75;;;12.90;80.00;;;;;;4916936;29;20052;-90
2021/10/29 11:22:16;;;;;;;19.08;8.20;;;12.90;80.20;;;;;;4916603;29;20048;-90
2021/10/29 11:24:45;;;;;;;16.48;6.47;;;12.90;80.30;;;;;;4901731;29;20055;-90
2021/10/29 11:27:18;;;;;;;18.00;6.50;;;12.90;80.50;;;;;;4933984;29;20093;-90
2021/10/29 11:29:47;;;;;;;12.23;6.35;;;12.90;80.60;;;;;;4919594;29;20059;-90
2021/10/29 11:32:20;;;;;;;13.10;6.65;;;12.90;80.70;;;;;;4929985;29;20067;-89
2021/10/29 11:34:57;;;;;;;11.82;6.65;;;12.80;80.80;;;;;;4925775;29;20056;-89
2021/10/29 11:37:25;;;;;;;14.10;6.13;;;12.90;80.90;;;;;;4916583;29;20140;-89
2021/10/29 11:39:53;;;;;;;12.65;6.20;;;12.90;81.00;;;;;;4917005;29;20048;-91
2021/10/29 11:42:20;;;;;;;13.98;6.50;;;12.80;81.10;;;;;;4902096;29;20052;-91
2021/10/29 11:44:48;;;;;;;14.65;7.03;;;12.80;81.20;;;;;;4937224;28;20055;-91
2021/10/29 11:47:15;;;;;;;10.55;6.07;;;12.90;81.30;;;;;;4962756;28;20055;-89
2021/10/29 11:49:42;;;;;;;11.40;5.65;;;12.80;81.40;;;;;;4956488;28;20106;-91
2021/10/29 11:52:09;;;;;;;11.20;5.85;;;12.80;81.50;;;;;;4957135;28;20047;-90
2021/10/29 11:54:46;;;;;;;11.52;5.65;;;12.80;81.60;;;;;;4959986;28;20623;-92
2021/10/29 11:57:45;;;;;;;10.77;6.57;;;12.80;81.70;;;;;;4957651;28;20511;-90
2021/10/29 12:00:26;;;;;;;11.48;5.28;;;12.90;81.90;;;;;;4958927;28;20097;-89
2021/10/29 12:05:55;;;;;;;10.70;5.45;;;12.90;82.10;;;;;;4955664;28;20098;-91
2021/10/29 12:08:27;;;;;;;13.95;6.10;;;12.90;82.20;;;;;;4955632;28;20062;-90
2021/10/29 12:11:02;;;;;;;13.05;5.65;;;12.80;82.40;;;;;;4955745;28;20054;-90
2021/10/29 12:13:32;;;;;;;10.52;5.60;;;12.80;82.50;;;;;;4970027;28;20396;-91
2021/10/29 12:15:59;;;;;;;12.60;5.93;;;12.90;82.60;;;;;;4964400;28;20058;-92
2021/10/29 12:18:33;;;;;;;10.05;5.82;;;12.90;82.70;;;;;;4955677;28;20110;-93
2021/10/29 12:21:00;;;;;;;10.95;5.47;;;12.90;82.80;;;;;;4958535;28;20055;-91
2021/10/29 12:23:29;;;;;;;12.88;5.85;;;12.90;82.90;;;;;;4974652;28;20058;-92
2021/10/29 12:26:02;;;;;;;11.07;6.00;;;12.90;82.90;;;;;;4974891;28;20051;-91
2021/10/29 12:31:12;;;;;;;10.63;5.72;;;12.90;83.10;;;;;;4964731;28;20098;-88
2021/10/29 12:34:10;;;;;;;12.07;5.78;;;12.90;83.20;;;;;;4972130;28;20047;-91
2021/10/29 12:59:17;;;;;;;15.50;6.07;;;13.00;84.00;;;;;;4957320;28;20051;-89
2021/10/29 13:01:56;;;;;;;8.93;5.40;;;13.10;84.10;;;;;;4964078;28;20050;-90
2021/10/29 13:04:46;;;;;;;11.40;6.32;;;13.10;84.20;;;;;;4967304;28;20047;-87
2021/10/29 13:07:13;;;;;;;10.27;6.07;;;13.10;84.20;;;;;;4958197;28;20046;-86
2021/10/29 13:09:40;;;;;;;11.73;5.32;;;13.10;84.20;;;;;;4966322;28;20690;-89
2021/10/29 13:12:54;;;;;;;12.57;6.03;;;13.20;84.20;;;;;;4970460;28;20043;-87
2021/10/29 13:15:04;;;;;;;10.27;5.25;;;13.20;84.30;;;;;;4953727;28;20051;-90
2021/10/29 13:17:36;;;;;;;11.25;5.68;;;13.30;84.30;;;;;;4967446;28;20051;-89
2021/10/29 13:28:16;;;;;;;10.35;5.93;;;13.40;84.30;;;;;;4966479;28;20047;-87
2021/10/29 13:36:26;;;;;;;9.52;5.38;;;13.40;84.30;;;;;;4957316;28;20046;-89
2021/10/29 13:53:09;;;;;;;11.35;5.35;;;13.60;84.00;;;;;;4963043;28;20050;-90
2021/10/29 14:30:28;;;;;;;10.07;4.88;;;13.80;83.00;;;;;;4959029;28;20050;-90
2021/10/29 14:33:18;;;;;;;8.20;4.88;;;13.90;83.00;;;;;;4957521;28;20531;-90
2021/10/29 14:35:49;;;;;;;12.10;5.35;;;13.90;82.90;;;;;;4956186;28;20409;-88
2021/10/29 14:38:33;;;;;;;10.88;4.97;;;13.90;82.90;;;;;;4970479;28;20050;-89
2021/10/29 14:41:10;;;;;;;10.35;5.05;;;13.80;82.90;;;;;;4957884;28;20607;-89
2021/10/29 14:43:48;;;;;;;9.02;4.63;;;13.90;82.90;;;;;;4964745;28;20050;-88
2021/10/29 14:46:40;;;;;;;12.38;5.53;;;13.90;82.80;;;;;;4969190;28;20105;-90
2021/10/29 15:05:20;;;;;;;7.45;4.45;;;13.80;82.60;;;;;;4959183;28;20110;-90
2021/10/29 15:16:30;;;;;;;13.30;6.25;;;13.90;82.50;;;;;;4972620;28;20156;-89
2021/10/29 15:43:31;;;;;;;17.77;5.45;;;13.70;82.30;;;;;;4902199;29;20052;-87
2021/10/29 15:46:07;;;;;;;13.18;6.13;;;13.70;82.30;;;;;;4895031;29;20532;-88
2021/10/29 15:48:51;;;;;;;8.70;5.68;;;13.70;82.30;;;;;;4898687;29;20048;-88
2021/10/29 15:51:18;;;;;;;13.73;6.32;;;13.80;82.40;;;;;;4898406;29;20206;-87
2021/10/29 15:53:46;;;;;;;12.82;6.22;;;13.80;82.40;;;;;;4911125;29;20059;-92
2021/10/29 16:18:14;;;;;;;10.15;5.97;;;13.70;82.40;;;;;;4915523;29;20528;-88
2021/10/29 16:20:41;;;;;;;12.48;6.55;;;13.70;82.50;;;;;;4928728;29;20051;-87
2021/10/29 16:23:10;;;;;;;15.25;5.85;;;13.60;82.40;;;;;;4924675;29;20047;-87
2021/10/29 16:25:47;;;;;;;10.95;6.20;;;13.70;82.50;;;;;;4924267;29;20067;-85
2021/10/29 16:28:15;;;;;;;14.30;6.28;;;13.70;82.50;;;;;;4924523;29;20102;-88
2021/10/29 16:30:42;;;;;;;12.80;6.07;;;13.70;82.40;;;;;;4924913;29;20080;-87
2021/10/29 16:33:24;;;;;;;11.70;5.85;;;13.70;82.40;;;;;;4913882;29;20509;-87
2021/10/29 16:35:52;;;;;;;13.40;5.88;;;13.60;82.40;;;;;;4948633;28;20063;-88
2021/10/29 16:38:20;;;;;;;10.60;5.63;;;13.60;82.40;;;;;;4966335;28;20075;-88
2021/10/29 16:40:48;;;;;;;9.75;5.72;;;13.60;82.40;;;;;;4965195;28;20053;-88
2021/10/29 16:43:15;;;;;;;11.35;7.18;;;13.60;82.40;;;;;;4965321;28;20042;-87
2021/10/29 16:45:45;;;;;;;10.15;6.50;;;13.60;82.40;;;;;;4966749;28;20302;-87
2021/10/29 16:48:14;;;;;;;14.88;7.53;;;13.60;82.40;;;;;;4954488;28;20046;-88
2021/10/29 16:50:41;;;;;;;14.40;8.68;;;13.60;82.40;;;;;;4969003;28;20463;-87
2021/10/29 16:53:08;;;;;;;11.95;7.68;;;13.60;82.40;;;;;;4966652;28;20051;-88
2021/10/29 16:55:36;;;;;;;13.05;7.50;;;13.50;82.40;;;;;;4964865;28;20043;-89
2021/10/29 16:58:04;;;;;;;16.08;7.05;;;13.50;82.30;;;;;;4968503;28;20061;-88
2021/10/29 17:00:31;;;;;;;12.45;7.07;;;13.50;82.40;;;;;;4953951;28;20047;-88
2021/10/29 17:02:59;;;;;;;10.70;6.80;;;13.50;82.30;;;;;;4969286;28;20054;-88
2021/10/29 17:05:26;;;;;;;11.13;6.60;;;13.50;82.40;;;;;;4954378;28;20059;-89
2021/10/29 17:07:53;;;;;;;10.55;6.78;;;13.50;82.40;;;;;;4962765;28;20065;-89
2021/10/29 17:10:21;;;;;;;12.93;6.85;;;13.40;82.40;;;;;;4966313;28;20050;-88
2021/10/29 17:12:48;;;;;;;12.00;6.75;;;13.40;82.40;;;;;;4966199;28;20063;-88
2021/10/29 17:15:16;;;;;;;10.10;6.57;;;13.40;82.40;;;;;;4969415;28;20047;-90
2021/10/29 17:17:45;;;;;;;10.10;7.00;;;13.40;82.50;;;;;;4968446;28;20463;-88
2021/10/29 17:20:14;;;;;;;13.45;7.53;;;13.40;82.50;;;;;;4965667;28;20499;-87
2021/10/29 17:22:42;;;;;;;12.23;7.82;;;13.40;82.50;;;;;;4963755;28;20058;-87
2021/10/29 17:25:11;;;;;;;14.40;7.60;;;13.40;82.50;;;;;;4956748;28;20582;-86
2021/10/29 17:27:39;;;;;;;11.70;7.40;;;13.40;82.60;;;;;;4967166;28;20496;-87
2021/10/29 17:30:07;;;;;;;12.70;7.50;;;13.40;82.60;;;;;;4969900;28;20047;-86
2021/10/29 17:32:34;;;;;;;9.40;6.47;;;13.30;82.70;;;;;;4963715;28;20058;-89
2021/10/29 17:35:01;;;;;;;12.20;6.55;;;13.30;82.70;;;;;;4957181;28;20094;-87